Aérodrome :
LOGIN :

S'inscrire | Disclaimer

   EN    FR    IT 

 










Légende :    VFR   VFR Marginal   IFR   IFR Intensif   IFR Très Intensif
Visi : 
Plafond : 
>= 8 km
>= 3000ft
5 à 8 km
1000 à 3000 ft
1500m à 5 km
500 à 1000 ft
800 à 1500m
200 à 500 ft
< 800m
< 200 ft
Symboles :   Orages  Brouillard  Fortes neiges  Fortes précipitations  Vent > 20 kt
SIGMETs :   Divers  Orages  Givrage  Turbulence  Onde Orograph.  Cendres Volcan.







- Altitude de l'aérodrome : 7 ft
- Code IATA : POW


LJPZ - Portoroz

DERNIER METAR :
  • 180230Z AUTO 12004KT 9999 FEW047/// BKN120/// 18/17 Q1014

METARs EXPIRÉS :
  • 180200Z AUTO 13004KT 100V160 9999 SCT047/// BKN065/// 18/17 Q1014
  • 180130Z AUTO 13005KT 9999 SCT060/// BKN075/// 19/17 Q1014
  • 180100Z AUTO 14006KT 9999 SCT060/// 19/18 Q1014
  • 180030Z AUTO 13005KT 9999 NCD 19/18 Q1014
  • 180000Z AUTO VRB02KT 9999 FEW065/// 19/18 Q1014

TAF TAF LJPZ
Valide du 18 à 03h jusqu'au 18 à 12h UTC


180200Z 1803/1812 12005KT 9999 BKN050
PROB40
TEMPO 1803/1811 VRB10G20KT 7000 TSRA SCT040CB BKN050
Pas de NOTAMs connus pour ce terrain.



MET'MAP, la Météo Aéronautique d'un coup d'oeil ! - Copyright ORBIFLY Décembre 2007 - Disclaimer

ORBIFLY MET'MAP TEAM :

Programmation & Développement : Alexandra Zaïnal
Conception & Développement : Baudouin d'Aumeries
Co-Programmation & Développement : Marc-Olivier Méhu
Soutien technique & logistique : Manuel Goepfert

Contact : metmap@orbifly.com




SOURCES & CREDITS :

   NOAA